createdAt,value
2022-09-28T00:01:17.990Z,13.67
2022-09-28T00:03:48.629Z,13.75
2022-09-28T00:06:19.131Z,13.73
2022-09-28T00:08:50.341Z,13.71
2022-09-28T00:11:20.705Z,13.74
2022-09-28T00:13:52.561Z,13.77
2022-09-28T00:16:23.982Z,13.72
2022-09-28T00:18:54.038Z,13.81
2022-09-28T00:21:24.149Z,13.75
2022-09-28T00:24:16.571Z,13.70
2022-09-28T00:26:48.246Z,13.86
2022-09-28T00:29:23.346Z,13.84
2022-09-28T00:31:54.297Z,13.84
2022-09-28T00:34:23.898Z,13.87
2022-09-28T00:36:52.293Z,13.91
2022-09-28T00:39:20.504Z,13.96
2022-09-28T00:41:48.780Z,13.96
2022-09-28T00:44:42.961Z,13.87
2022-09-28T00:47:32.372Z,13.94
2022-09-28T00:50:06.398Z,13.88
2022-09-28T00:52:39.252Z,13.84
2022-09-28T00:55:11.846Z,13.88
2022-09-28T00:57:44.472Z,13.87
2022-09-28T01:00:14.706Z,13.87
2022-09-28T01:02:43.518Z,13.86
2022-09-28T01:05:13.876Z,13.83
2022-09-28T01:07:43.815Z,13.88
2022-09-28T01:10:13.216Z,13.87
2022-09-28T01:12:41.355Z,13.87
2022-09-28T01:15:10.250Z,13.87
2022-09-28T01:17:53.525Z,13.79
2022-09-28T01:20:37.730Z,13.80
2022-09-28T01:23:47.257Z,13.81
2022-09-28T01:26:36.265Z,13.86
2022-09-28T01:29:12.075Z,13.77
2022-09-28T01:31:46.572Z,13.78
2022-09-28T01:34:20.260Z,13.76
2022-09-28T01:36:53.521Z,13.76
2022-09-28T01:39:27.462Z,13.72
2022-09-28T01:42:02.318Z,13.66
2022-09-28T01:44:39.911Z,13.65
2022-09-28T01:47:11.890Z,13.59
2022-09-28T01:49:43.554Z,13.58
2022-09-28T01:52:17.914Z,13.58
2022-09-28T01:54:51.102Z,13.58
2022-09-28T01:57:27.099Z,13.50
2022-09-28T01:59:59.972Z,13.54
2022-09-28T02:02:32.867Z,13.53
2022-09-28T02:05:06.191Z,13.54
2022-09-28T02:07:38.876Z,13.57
2022-09-28T02:10:14.257Z,13.55
2022-09-28T02:12:47.889Z,13.58
2022-09-28T02:15:21.300Z,13.56
2022-09-28T02:17:50.470Z,13.60
2022-09-28T02:20:18.901Z,13.59
2022-09-28T02:22:50.987Z,13.58
2022-09-28T02:25:25.051Z,13.59
2022-09-28T02:27:59.638Z,13.53
2022-09-28T02:30:28.269Z,13.55
2022-09-28T02:33:00.638Z,13.49
2022-09-28T02:35:28.910Z,13.51
2022-09-28T02:37:57.588Z,13.48
2022-09-28T02:40:30.036Z,13.46
2022-09-28T02:43:09.837Z,13.45
2022-09-28T02:45:49.243Z,13.42
2022-09-28T02:48:43.273Z,13.41
2022-09-28T02:51:21.685Z,13.41
2022-09-28T02:54:31.916Z,13.41
2022-09-28T02:57:13.312Z,13.38
2022-09-28T02:59:51.618Z,13.42
2022-09-28T03:02:27.582Z,13.43
2022-09-28T03:05:13.121Z,13.48
2022-09-28T03:07:46.603Z,13.46
2022-09-28T03:10:21.839Z,13.41
2022-09-28T03:12:52.654Z,13.46
2022-09-28T03:15:27.274Z,13.48
2022-09-28T03:17:55.932Z,13.51
2022-09-28T03:20:24.117Z,13.48
2022-09-28T03:23:19.606Z,13.49
2022-09-28T03:25:40.835Z,13.48
2022-09-28T03:28:09.065Z,13.46
2022-09-28T03:30:39.540Z,13.45
2022-09-28T03:33:08.012Z,13.48
2022-09-28T03:35:36.225Z,13.46
2022-09-28T03:38:04.224Z,13.46
2022-09-28T03:40:32.532Z,13.51
2022-09-28T03:43:02.073Z,13.45
2022-09-28T03:45:30.155Z,13.43
2022-09-28T03:48:00.309Z,13.45
2022-09-28T03:50:28.855Z,13.51
2022-09-28T03:52:57.073Z,13.49
2022-09-28T03:55:25.418Z,13.54
2022-09-28T03:57:57.045Z,13.53
2022-09-28T04:00:25.523Z,13.57
2022-09-28T04:02:54.941Z,13.57
2022-09-28T04:05:24.577Z,13.57
2022-09-28T04:07:54.027Z,13.53
2022-09-28T04:10:22.175Z,13.61
2022-09-28T04:12:51.193Z,13.63
2022-09-28T04:15:19.277Z,13.68
2022-09-28T04:17:48.429Z,13.70
2022-09-28T04:20:16.944Z,13.74
2022-09-28T04:22:46.452Z,13.80
2022-09-28T04:25:14.586Z,13.85
2022-09-28T04:28:00.307Z,13.87
2022-09-28T04:30:28.569Z,13.84
2022-09-28T04:32:56.653Z,13.81
2022-09-28T04:35:24.795Z,13.86
2022-09-28T04:37:54.340Z,13.84
2022-09-28T04:40:22.431Z,13.87
2022-09-28T04:42:55.728Z,13.84
2022-09-28T04:45:26.137Z,13.83
2022-09-28T04:47:54.688Z,13.87
2022-09-28T04:50:23.233Z,13.83
2022-09-28T04:52:51.193Z,13.85
2022-09-28T04:55:20.759Z,13.86
2022-09-28T04:57:49.176Z,13.84
2022-09-28T05:00:17.460Z,13.88
2022-09-28T05:02:45.593Z,13.94
2022-09-28T05:05:14.045Z,13.96
2022-09-28T05:07:42.138Z,14.01
2022-09-28T05:10:10.532Z,14.03
2022-09-28T05:12:40.282Z,14.04
2022-09-28T05:15:08.948Z,13.99
2022-09-28T05:17:36.955Z,14.02
2022-09-28T05:20:05.801Z,13.99
2022-09-28T05:22:34.499Z,13.99
2022-09-28T05:25:02.999Z,14.02
2022-09-28T05:27:31.269Z,13.99
2022-09-28T05:30:01.736Z,13.98
2022-09-28T05:32:29.843Z,14.05
2022-09-28T05:35:01.254Z,14.13
2022-09-28T05:37:29.246Z,14.08
2022-09-28T05:39:57.584Z,14.09
2022-09-28T05:42:26.351Z,14.09
2022-09-28T05:44:54.495Z,14.07
2022-09-28T05:47:23.912Z,14.04
2022-09-28T05:49:52.209Z,14.06
2022-09-28T05:52:20.682Z,14.09
2022-09-28T05:54:49.008Z,14.14
2022-09-28T05:57:17.364Z,14.13
2022-09-28T05:59:45.460Z,14.09
2022-09-28T06:02:13.595Z,14.12
2022-09-28T06:04:43.505Z,14.13
2022-09-28T06:07:12.106Z,14.18
2022-09-28T06:09:40.125Z,14.17
2022-09-28T06:12:08.609Z,14.21
2022-09-28T06:14:36.661Z,14.28
2022-09-28T06:17:04.739Z,14.36
2022-09-28T06:19:33.132Z,14.21
2022-09-28T06:22:02.521Z,14.20
2022-09-28T06:24:30.762Z,14.21
2022-09-28T06:26:59.084Z,14.22
2022-09-28T06:29:27.101Z,14.23
2022-09-28T06:31:56.220Z,14.20
2022-09-28T06:34:25.070Z,14.24
2022-09-28T06:36:53.078Z,14.23
2022-09-28T06:39:22.600Z,14.25
2022-09-28T06:41:50.966Z,14.29
2022-09-28T06:44:19.180Z,14.17
2022-09-28T06:46:47.401Z,14.16
2022-09-28T06:49:19.314Z,14.15
2022-09-28T06:51:47.716Z,14.05
2022-09-28T06:54:16.116Z,13.98
2022-09-28T06:56:46.140Z,14.01
2022-09-28T06:59:14.331Z,13.95
2022-09-28T07:01:42.847Z,13.93
2022-09-28T07:04:11.423Z,13.87
2022-09-28T07:06:39.791Z,13.89
2022-09-28T07:09:21.731Z,13.94
2022-09-28T07:11:57.469Z,13.94
2022-09-28T07:14:45.579Z,13.91
2022-09-28T07:17:14.927Z,13.91
2022-09-28T07:19:43.466Z,13.89
2022-09-28T07:22:18.985Z,13.88
2022-09-28T07:24:49.175Z,13.87
2022-09-28T07:27:20.084Z,13.90
2022-09-28T07:29:48.141Z,13.88
2022-09-28T07:32:16.557Z,13.91
2022-09-28T07:34:44.901Z,13.88
2022-09-28T07:37:13.481Z,13.88
2022-09-28T07:39:59.914Z,13.89
2022-09-28T07:42:30.476Z,13.93
2022-09-28T07:44:59.169Z,13.98
2022-09-28T07:47:33.930Z,14.03
2022-09-28T07:50:03.252Z,14.06
2022-09-28T07:52:31.782Z,14.08
2022-09-28T07:55:04.547Z,14.09
2022-09-28T07:57:36.586Z,14.06
2022-09-28T08:00:07.345Z,14.01
2022-09-28T08:02:35.789Z,14.05
2022-09-28T08:05:04.372Z,14.01
2022-09-28T08:07:34.536Z,14.08
2022-09-28T08:10:02.609Z,14.06
2022-09-28T08:12:30.993Z,14.03
2022-09-28T08:15:00.389Z,14.12
2022-09-28T08:17:28.819Z,14.12
2022-09-28T08:20:14.442Z,14.17
2022-09-28T08:22:42.487Z,14.08
2022-09-28T08:25:10.923Z,14.15
2022-09-28T08:27:39.356Z,14.12
2022-09-28T08:30:10.243Z,14.20
2022-09-28T08:32:38.642Z,14.18
2022-09-28T08:35:07.374Z,14.22
2022-09-28T08:37:35.435Z,14.34
2022-09-28T08:40:03.755Z,14.33
2022-09-28T08:42:37.219Z,14.38
2022-09-28T08:45:14.887Z,14.42
2022-09-28T08:48:09.678Z,14.54
2022-09-28T08:50:48.496Z,14.56
2022-09-28T08:53:33.361Z,14.61
2022-09-28T08:56:05.274Z,14.65
2022-09-28T08:58:37.133Z,14.75
2022-09-28T09:01:10.133Z,14.88
2022-09-28T09:03:42.069Z,14.87
2022-09-28T09:06:23.202Z,14.74
2022-09-28T09:09:01.431Z,14.78
2022-09-28T09:11:48.945Z,14.90
2022-09-28T09:14:44.840Z,14.88
2022-09-28T09:17:24.014Z,15.02
2022-09-28T09:19:55.899Z,14.97
2022-09-28T09:22:36.224Z,14.89
2022-09-28T09:25:14.959Z,14.85
2022-09-28T09:27:54.892Z,14.90
2022-09-28T09:30:26.207Z,14.97
2022-09-28T09:33:34.857Z,14.92
2022-09-28T09:36:22.874Z,14.84
2022-09-28T09:39:02.195Z,14.88
2022-09-28T09:41:45.499Z,14.93
2022-09-28T09:44:30.210Z,15.09
2022-09-28T09:47:08.358Z,15.26
2022-09-28T09:49:41.234Z,15.35
2022-09-28T09:52:16.749Z,15.41
2022-09-28T09:54:49.141Z,15.40
2022-09-28T09:57:21.851Z,15.47
2022-09-28T09:59:50.921Z,15.49
2022-09-28T10:02:25.415Z,15.32
2022-09-28T10:04:58.747Z,15.47
2022-09-28T10:07:32.622Z,15.44
2022-09-28T10:10:03.633Z,15.41
2022-09-28T10:12:32.345Z,15.41
2022-09-28T10:15:09.991Z,15.41
2022-09-28T10:17:39.218Z,15.40
2022-09-28T10:20:13.882Z,15.45
2022-09-28T10:22:42.443Z,15.50
2022-09-28T10:25:12.531Z,15.40
2022-09-28T10:27:46.183Z,15.41
2022-09-28T10:30:19.106Z,15.53
2022-09-28T10:32:48.955Z,15.48
2022-09-28T10:35:28.124Z,15.45
2022-09-28T10:38:00.480Z,15.38
2022-09-28T10:40:34.724Z,15.47
2022-09-28T10:43:04.637Z,15.42
2022-09-28T10:45:37.892Z,15.44
2022-09-28T10:48:15.074Z,15.38
2022-09-28T10:50:44.706Z,15.39
2022-09-28T10:53:19.375Z,15.40
2022-09-28T10:56:00.589Z,15.40
2022-09-28T10:58:33.661Z,15.42
2022-09-28T11:01:04.994Z,15.38
2022-09-28T11:03:33.977Z,15.41
2022-09-28T11:06:06.912Z,15.45
2022-09-28T11:08:38.707Z,15.40
2022-09-28T11:11:10.343Z,15.44
2022-09-28T11:13:45.310Z,15.45
2022-09-28T11:16:35.227Z,15.41
2022-09-28T11:19:06.962Z,15.46
2022-09-28T11:21:46.202Z,15.34
2022-09-28T11:24:23.299Z,15.16
2022-09-28T11:26:56.634Z,15.19
2022-09-28T11:29:32.226Z,15.23
2022-09-28T11:32:03.372Z,15.27
2022-09-28T11:34:58.110Z,15.43
2022-09-28T11:37:40.039Z,15.63
2022-09-28T11:40:21.468Z,15.63
2022-09-28T11:42:59.972Z,15.74
2022-09-28T11:45:49.880Z,15.74
2022-09-28T11:48:23.502Z,15.83
2022-09-28T11:50:56.084Z,15.95
2022-09-28T11:53:31.667Z,15.97
2022-09-28T11:56:08.838Z,15.93
2022-09-28T11:58:42.441Z,15.99
2022-09-28T12:01:25.405Z,15.96
2022-09-28T12:03:58.605Z,15.98
2022-09-28T12:06:36.134Z,16.12
2022-09-28T12:09:18.116Z,16.09
2022-09-28T12:11:50.524Z,15.93
2022-09-28T12:14:23.167Z,16.05
2022-09-28T12:17:07.461Z,16.02
2022-09-28T12:19:41.399Z,16.11
2022-09-28T12:22:17.357Z,16.12
2022-09-28T12:24:50.350Z,16.19
2022-09-28T12:27:25.478Z,16.21
2022-09-28T12:30:00.203Z,16.17
2022-09-28T12:32:35.745Z,16.30
2022-09-28T12:35:04.511Z,16.42
2022-09-28T12:37:45.784Z,16.35
2022-09-28T12:40:32.889Z,16.35
2022-09-28T12:43:17.751Z,16.38
2022-09-28T12:46:12.999Z,16.41
2022-09-28T12:49:27.240Z,16.41
2022-09-28T12:51:50.534Z,16.44
2022-09-28T12:54:39.034Z,16.31
2022-09-28T12:57:31.137Z,16.29
2022-09-28T13:00:05.631Z,16.33
2022-09-28T13:03:03.894Z,16.29
2022-09-28T13:06:07.013Z,16.27
2022-09-28T13:08:42.947Z,16.29
2022-09-28T13:11:22.924Z,16.22
2022-09-28T13:14:02.006Z,16.28
2022-09-28T13:16:39.092Z,16.31
2022-09-28T13:19:23.188Z,16.47
2022-09-28T13:22:01.470Z,16.45
2022-09-28T13:24:34.913Z,16.45
2022-09-28T13:27:10.985Z,16.49
2022-09-28T13:29:42.094Z,16.48
2022-09-28T13:32:12.927Z,16.42
2022-09-28T13:34:41.914Z,16.39
2022-09-28T13:37:21.344Z,16.40
2022-09-28T13:39:54.085Z,16.44
2022-09-28T13:42:51.560Z,16.45
2022-09-28T13:45:36.351Z,16.61
2022-09-28T13:48:17.441Z,16.73
2022-09-28T13:51:26.223Z,16.88
2022-09-28T13:54:15.931Z,16.89
2022-09-28T13:56:53.256Z,16.84
2022-09-28T13:59:28.096Z,16.87
2022-09-28T14:02:06.805Z,16.77
2022-09-28T14:04:56.489Z,16.77
2022-09-28T14:10:18.712Z,16.74
2022-09-28T14:12:49.367Z,16.66
2022-09-28T14:15:40.782Z,16.67
2022-09-28T14:18:23.874Z,16.68
2022-09-28T14:21:03.505Z,16.57
2022-09-28T14:23:53.440Z,16.55
2022-09-28T14:26:54.061Z,16.46
2022-09-28T14:29:31.531Z,16.45
2022-09-28T14:32:05.385Z,16.43
2022-09-28T14:34:38.826Z,16.40
2022-09-28T14:37:38.244Z,16.37
2022-09-28T14:40:35.646Z,16.51
2022-09-28T14:43:28.523Z,16.55
2022-09-28T14:46:32.421Z,16.56
2022-09-28T14:49:04.114Z,16.62
2022-09-28T14:52:08.647Z,16.67
2022-09-28T14:54:47.445Z,16.63
2022-09-28T14:57:21.834Z,16.66
2022-09-28T14:59:50.540Z,16.70
2022-09-28T15:02:26.303Z,16.79
2022-09-28T15:05:00.222Z,16.87
2022-09-28T15:07:33.019Z,16.71
2022-09-28T15:10:03.570Z,16.71
2022-09-28T15:12:32.502Z,16.60
2022-09-28T15:15:02.660Z,16.64
2022-09-28T15:17:38.540Z,16.52
2022-09-28T15:20:30.031Z,16.49
2022-09-28T15:23:00.293Z,16.36
2022-09-28T15:25:31.897Z,16.44
2022-09-28T15:28:03.701Z,16.43
2022-09-28T15:30:33.781Z,16.44
2022-09-28T15:33:18.551Z,16.31
2022-09-28T15:35:49.936Z,16.40
2022-09-28T15:38:18.753Z,16.25
2022-09-28T15:40:48.922Z,16.14
2022-09-28T15:43:27.252Z,16.16
2022-09-28T15:46:02.844Z,16.10
2022-09-28T15:48:35.240Z,16.03
2022-09-28T15:51:11.041Z,15.97
2022-09-28T15:53:44.675Z,15.92
2022-09-28T15:56:14.640Z,15.91
2022-09-28T15:58:43.473Z,15.83
2022-09-28T16:01:36.287Z,15.72
2022-09-28T16:04:37.573Z,15.67
2022-09-28T16:07:40.144Z,15.64
2022-09-28T16:10:31.329Z,15.60
2022-09-28T16:13:12.120Z,15.55
2022-09-28T16:15:43.287Z,15.49
2022-09-28T16:18:21.202Z,15.42
2022-09-28T16:20:52.371Z,15.36
2022-09-28T16:23:27.306Z,15.28
2022-09-28T16:26:00.307Z,15.20
2022-09-28T16:28:52.162Z,15.15
2022-09-28T16:31:29.746Z,15.15
2022-09-28T16:34:01.547Z,15.14
2022-09-28T16:36:40.296Z,15.16
2022-09-28T16:39:10.009Z,15.07
2022-09-28T16:41:40.156Z,15.10
2022-09-28T16:44:18.275Z,14.99
2022-09-28T16:46:47.362Z,14.98
2022-09-28T16:49:20.198Z,14.90
2022-09-28T16:51:49.245Z,14.87
2022-09-28T16:54:36.918Z,14.84
2022-09-28T16:57:07.264Z,14.90
2022-09-28T16:59:38.848Z,14.83
2022-09-28T17:02:45.652Z,14.70
2022-09-28T17:05:16.147Z,14.77
2022-09-28T17:07:45.752Z,14.77
2022-09-28T17:10:18.656Z,14.65
2022-09-28T17:12:47.736Z,14.62
2022-09-28T17:15:19.751Z,14.64
2022-09-28T17:17:48.915Z,14.57
2022-09-28T17:20:23.404Z,14.49
2022-09-28T17:22:54.954Z,14.49
2022-09-28T17:25:25.900Z,14.48
2022-09-28T17:27:57.820Z,14.44
2022-09-28T17:30:27.451Z,14.40
2022-09-28T17:32:55.697Z,14.41
2022-09-28T17:35:25.396Z,14.43
2022-09-28T17:37:54.560Z,14.42
2022-09-28T17:40:25.893Z,14.38
2022-09-28T17:42:56.460Z,14.32
2022-09-28T17:45:28.772Z,14.33
2022-09-28T17:47:57.887Z,14.25
2022-09-28T17:50:28.070Z,14.24
2022-09-28T17:52:58.310Z,14.18
2022-09-28T17:55:28.674Z,14.09
2022-09-28T17:57:56.837Z,14.13
2022-09-28T18:00:28.093Z,14.12
2022-09-28T18:02:56.576Z,14.17
2022-09-28T18:05:25.754Z,14.02
2022-09-28T18:07:53.999Z,13.97
2022-09-28T18:10:23.947Z,13.96
2022-09-28T18:12:52.291Z,13.95
2022-09-28T18:15:21.101Z,14.02
2022-09-28T18:17:50.753Z,13.91
2022-09-28T18:20:18.994Z,13.93
2022-09-28T18:22:47.760Z,13.85
2022-09-28T18:25:16.174Z,13.90
2022-09-28T18:27:44.419Z,13.85
2022-09-28T18:30:13.191Z,13.78
2022-09-28T18:32:41.644Z,13.77
2022-09-28T18:35:14.491Z,13.79
2022-09-28T18:37:43.048Z,13.81
2022-09-28T18:40:14.494Z,13.80
2022-09-28T18:42:43.573Z,13.66
2022-09-28T18:45:13.363Z,13.68
2022-09-28T18:47:44.619Z,13.60
2022-09-28T18:50:15.541Z,13.55
2022-09-28T18:52:44.871Z,13.66
2022-09-28T18:55:13.692Z,13.60
2022-09-28T18:57:43.606Z,13.56
2022-09-28T19:00:15.284Z,13.49
2022-09-28T19:02:43.654Z,13.47
2022-09-28T19:05:13.304Z,13.44
2022-09-28T19:07:41.758Z,13.54
2022-09-28T19:10:10.324Z,13.45
2022-09-28T19:12:38.454Z,13.47
2022-09-28T19:15:07.561Z,13.48
2022-09-28T19:17:35.732Z,13.39
2022-09-28T19:20:03.900Z,13.40
2022-09-28T19:22:33.554Z,13.36
2022-09-28T19:25:01.669Z,13.28
2022-09-28T19:27:29.748Z,13.41
2022-09-28T19:29:58.352Z,13.39
2022-09-28T19:32:26.606Z,13.21
2022-09-28T19:34:54.665Z,13.24
2022-09-28T19:37:22.798Z,13.25
2022-09-28T19:39:52.251Z,13.19
2022-09-28T19:42:20.285Z,13.15
2022-09-28T19:44:48.329Z,13.10
2022-09-28T19:47:17.372Z,13.12
2022-09-28T19:49:45.360Z,13.19
2022-09-28T19:52:17.293Z,13.10
2022-09-28T19:54:52.173Z,13.04
2022-09-28T19:57:21.809Z,13.07
2022-09-28T19:59:52.649Z,13.02
2022-09-28T20:02:21.687Z,12.90
2022-09-28T20:04:50.554Z,12.95
2022-09-28T20:07:18.746Z,12.87
2022-09-28T20:09:46.873Z,12.85
2022-09-28T20:12:15.046Z,12.89
2022-09-28T20:14:44.592Z,12.74
2022-09-28T20:17:12.770Z,12.83
2022-09-28T20:19:41.206Z,12.75
2022-09-28T20:22:09.776Z,12.78
2022-09-28T20:24:37.880Z,12.80
2022-09-28T20:27:06.085Z,12.71
2022-09-28T20:29:34.804Z,12.69
2022-09-28T20:32:05.514Z,12.65
2022-09-28T20:34:34.781Z,12.55
2022-09-28T20:37:02.897Z,12.58
2022-09-28T20:39:30.986Z,12.55
2022-09-28T20:41:59.120Z,12.60
2022-09-28T20:44:27.398Z,12.67
2022-09-28T20:46:56.382Z,12.53
2022-09-28T20:49:27.305Z,12.58
2022-09-28T20:51:55.601Z,12.55
2022-09-28T20:54:23.684Z,12.49
2022-09-28T20:56:51.805Z,12.46
2022-09-28T20:59:22.711Z,12.48
2022-09-28T21:01:51.136Z,12.47
2022-09-28T21:04:19.727Z,12.45
2022-09-28T21:06:49.376Z,12.52
2022-09-28T21:09:17.645Z,12.45
2022-09-28T21:11:45.708Z,12.53
2022-09-28T21:14:13.902Z,12.58
2022-09-28T21:16:42.023Z,12.47
2022-09-28T21:19:10.183Z,12.58
2022-09-28T21:21:38.438Z,12.43
2022-09-28T21:24:08.563Z,12.40
2022-09-28T21:26:36.807Z,12.45
2022-09-28T21:29:07.250Z,12.37
2022-09-28T21:31:40.259Z,12.32
2022-09-28T21:34:08.814Z,12.25
2022-09-28T21:36:36.808Z,12.39
2022-09-28T21:39:10.086Z,12.33
2022-09-28T21:41:40.879Z,12.29
2022-09-28T21:44:09.838Z,12.26
2022-09-28T21:46:39.816Z,12.29
2022-09-28T21:49:09.754Z,12.36
2022-09-28T21:51:38.599Z,12.38
2022-09-28T21:54:06.912Z,12.30
2022-09-28T21:56:35.115Z,12.23
2022-09-28T21:59:04.560Z,12.22
2022-09-28T22:01:32.708Z,12.21
2022-09-28T22:04:01.219Z,12.33
2022-09-28T22:06:29.486Z,12.32
2022-09-28T22:08:58.335Z,12.26
2022-09-28T22:11:28.340Z,12.15
2022-09-28T22:13:59.071Z,12.22
2022-09-28T22:16:30.841Z,12.19
2022-09-28T22:18:59.425Z,12.26
2022-09-28T22:21:29.530Z,12.24
2022-09-28T22:24:01.138Z,12.30
2022-09-28T22:26:31.101Z,12.27
2022-09-28T22:29:00.829Z,12.20
2022-09-28T22:31:32.956Z,12.23
2022-09-28T22:34:01.345Z,12.17
2022-09-28T22:36:30.462Z,12.21
2022-09-28T22:38:59.549Z,12.12
2022-09-28T22:41:28.442Z,12.05
2022-09-28T22:43:56.878Z,12.03
2022-09-28T22:46:27.822Z,12.06
2022-09-28T22:48:58.922Z,11.98
2022-09-28T22:51:29.029Z,11.96
2022-09-28T22:53:57.845Z,11.97
2022-09-28T22:56:26.295Z,11.91
2022-09-28T22:58:54.781Z,11.91
2022-09-28T23:01:25.029Z,11.89
2022-09-28T23:03:54.207Z,11.90
2022-09-28T23:06:26.370Z,11.78
2022-09-28T23:08:54.771Z,11.80
2022-09-28T23:11:22.958Z,11.88
2022-09-28T23:13:51.812Z,11.94
2022-09-28T23:16:20.813Z,11.89
2022-09-28T23:18:49.987Z,11.80
2022-09-28T23:21:20.258Z,11.78
2022-09-28T23:23:53.563Z,11.71
2022-09-28T23:26:24.057Z,11.78
2022-09-28T23:28:52.976Z,11.77
2022-09-28T23:31:23.470Z,11.71
2022-09-28T23:33:52.581Z,11.73
2022-09-28T23:36:20.631Z,11.65
2022-09-28T23:38:50.493Z,11.61
2022-09-28T23:41:19.232Z,11.55
2022-09-28T23:43:47.295Z,11.55
2022-09-28T23:46:20.513Z,11.50
2022-09-28T23:48:49.615Z,11.49
2022-09-28T23:51:18.391Z,11.50
2022-09-28T23:53:46.495Z,11.50
2022-09-28T23:56:16.211Z,11.37
2022-09-28T23:58:44.599Z,11.33
